Sky Ever — DSQX9 — position and weather

sailwx.info

Track history (hours):
 
Tides and Currents Weather Stations Pressure Air Temp Water Temp Dewpoint Dewpoint Depression Visibility Wind Speed Wind Dir Waves Ship Positions

Sky Ever

Last reported at 2015-Mar-20 06:33 UTC. Time now 2015-Mar-27 15:47 UTC.
Position N 34°36' E 134°54'.

Length 76 m; draft 3.6 m.

Type: Cargo ship. MMSI: 441751000.

Date/timePositionNaut miles runAvg speedWind from/ knotsBaromVisibWave heightAir tempDewpointWater temp
2015-Mar-20 06:33N 34°36' E 134°54'7 6.5
2015-Mar-20 05:32N 34°37' E 135°01'6 6.3
2015-Mar-20 04:33N 34°36' E 135°09'10 9.5
2015-Mar-20 03:33N 34°36' E 135°20'6 5.8
2015-Mar-20 02:33N 34°40' E 135°25'0 0.0
2015-Mar-20 01:33N 34°40' E 135°25'0 0.0
2015-Mar-20 00:32N 34°40' E 135°25'0 0.1
2015-Mar-19 23:33N 34°40' E 135°25'5 3.4
2015-Mar-19 22:12N 34°37' E 135°22'0 0.1
2015-Mar-19 21:24N 34°37' E 135°22'0 0.0
2015-Mar-19 20:30N 34°37' E 135°22'0 0.0
2015-Mar-19 19:18N 34°37' E 135°22'0 0.0
2015-Mar-19 18:30N 34°37' E 135°22'0 0.0
2015-Mar-19 17:30N 34°37' E 135°22'0 0.0
2015-Mar-19 16:30N 34°37' E 135°22'0 0.0
2015-Mar-19 15:30N 34°37' E 135°22'0 0.0
2015-Mar-19 14:30N 34°37' E 135°22'0 0.0
2015-Mar-19 13:24N 34°37' E 135°22'0 0.1
2015-Mar-19 12:30N 34°37' E 135°22'0 0.0
2015-Mar-19 11:30N 34°37' E 135°22'0 0.1
2015-Mar-19 10:30N 34°37' E 135°22'0 0.0
2015-Mar-19 09:24N 34°37' E 135°22'0 0.0
2015-Mar-19 08:30N 34°37' E 135°22'0 0.0
2015-Mar-19 07:30N 34°37' E 135°22'0 0.0
2015-Mar-19 06:24N 34°37' E 135°22'0 0.1
2015-Mar-19 05:30N 34°37' E 135°22'0 0.0
2015-Mar-19 04:30N 34°37' E 135°22'0 0.0
2015-Mar-19 03:30N 34°37' E 135°22'0 0.0
2015-Mar-19 02:24N 34°37' E 135°22'0 0.0
2015-Mar-19 01:30N 34°37' E 135°22'0 0.0
2015-Mar-19 00:24N 34°37' E 135°22'0 0.1
2015-Mar-18 23:24N 34°37' E 135°22'0 0.1
2015-Mar-18 22:29N 34°37' E 135°22'0 0.0
2015-Mar-18 18:29N 34°37' E 135°22'0 0.1
2015-Mar-18 17:29N 34°37' E 135°22'0 0.0
2015-Mar-18 16:23N 34°37' E 135°22'0 0.0
2015-Mar-18 15:29N 34°37' E 135°22'0 0.0
2015-Mar-18 14:29N 34°37' E 135°22'0 0.0
2015-Mar-18 13:23N 34°37' E 135°22'0 0.0
2015-Mar-18 12:29N 34°37' E 135°22'0 0.0
2015-Mar-18 11:29N 34°37' E 135°22'0 0.0
2015-Mar-18 10:23N 34°37' E 135°22'0 0.1
2015-Mar-18 09:29N 34°37' E 135°22'6 5.6
2015-Mar-18 08:29N 34°31' E 135°23'0 0.0
2015-Mar-18 06:18N 34°31' E 135°23'0 0.0
2015-Mar-18 05:24N 34°31' E 135°23'0 0.0
2015-Mar-18 02:31N 34°31' E 135°23'2 1.9
2015-Mar-18 01:26N 34°33' E 135°21'0 0.0
2015-Mar-18 00:32N 34°33' E 135°21'0 0.0
2015-Mar-17 23:08N 34°33' E 135°21'0 0.0
2015-Mar-17 22:32N 34°33' E 135°21'0 0.0
2015-Mar-17 21:26N 34°33' E 135°21'0 0.0
2015-Mar-17 20:32N 34°33' E 135°21'0 0.0
2015-Mar-17 18:26N 34°33' E 135°21'0 0.0
2015-Mar-17 17:32N 34°33' E 135°21'0 0.0
2015-Mar-17 16:32N 34°33' E 135°21'0 0.0
2015-Mar-17 15:32N 34°33' E 135°21'0 0.0
2015-Mar-17 14:31N 34°33' E 135°21'0 0.0
2015-Mar-17 12:31N 34°33' E 135°21'0 0.0
2015-Mar-17 11:13N 34°33' E 135°21'0 0.0
2015-Mar-17 10:25N 34°33' E 135°21'0 0.0
2015-Mar-17 09:19N 34°33' E 135°21'0 0.0
2015-Mar-17 07:25N 34°33' E 135°21'0 0.0
2015-Mar-17 06:25N 34°33' E 135°21'0 0.0
2015-Mar-17 04:31N 34°33' E 135°21'6 5.7
2015-Mar-17 03:33N 34°38' E 135°19'8 8.3
2015-Mar-17 02:33N 34°35' E 135°10'10 9.7
2015-Mar-17 01:33N 34°36' E 134°58'  
2015-Mar-12 11:30N 34°35' E 134°53'7 7.4
2015-Mar-12 10:32N 34°37' E 135°02'7 6.9
2015-Mar-12 09:32N 34°36' E 135°10'8 8.4
2015-Mar-12 08:33N 34°34' E 135°20'4 3.9
2015-Mar-12 07:29N 34°31' E 135°24'0 0.0
2015-Mar-12 06:29N 34°31' E 135°24'0 0.0
2015-Mar-12 05:29N 34°31' E 135°24'0 0.0
2015-Mar-12 04:29N 34°31' E 135°24'0 0.0
2015-Mar-12 03:29N 34°31' E 135°24'0 0.0
2015-Mar-12 02:29N 34°31' E 135°24'0 0.0
2015-Mar-12 01:29N 34°31' E 135°24'0 0.0
2015-Mar-12 00:28N 34°31' E 135°24'0 0.0
2015-Mar-11 23:28N 34°31' E 135°24'0 0.0
2015-Mar-11 22:33N 34°31' E 135°24'2 2.0
2015-Mar-11 21:28N 34°32' E 135°22'0 0.0
2015-Mar-11 20:22N 34°32' E 135°22'0 0.0
2015-Mar-11 19:22N 34°32' E 135°22'0 0.0
2015-Mar-11 18:28N 34°32' E 135°22'0 0.0
2015-Mar-11 17:04N 34°32' E 135°22'0 0.0
2015-Mar-11 16:04N 34°32' E 135°22'0 0.0
2015-Mar-11 14:21N 34°32' E 135°22'0 0.1
2015-Mar-11 13:33N 34°32' E 135°22'0 0.0
2015-Mar-11 12:09N 34°32' E 135°22'0 0.0
2015-Mar-11 11:27N 34°32' E 135°22'0 0.0
2015-Mar-11 10:09N 34°32' E 135°22'0 0.0
2015-Mar-11 09:27N 34°32' E 135°22'0 0.0
2015-Mar-11 07:33N 34°32' E 135°22'6 6.2
2015-Mar-11 06:33N 34°38' E 135°23'3 2.9
2015-Mar-11 05:33N 34°40' E 135°25'0 0.0
2015-Mar-11 04:15N 34°40' E 135°25'0 0.0
2015-Mar-11 03:33N 34°40' E 135°25'0 0.0
2015-Mar-11 02:27N 34°40' E 135°25'0 0.1
2015-Mar-11 01:33N 34°40' E 135°25'0 0.0
2015-Mar-11 00:33N 34°40' E 135°25'1 0.9
2015-Mar-10 23:33N 34°40' E 135°25'4 3.3
2015-Mar-10 22:26N 34°37' E 135°22'0 0.0
2015-Mar-10 21:32N 34°37' E 135°22'0 0.1
2015-Mar-10 20:32N 34°37' E 135°22'0 0.1
2015-Mar-10 19:32N 34°37' E 135°22'0 0.0
2015-Mar-10 18:14N 34°37' E 135°22'0 0.0
2015-Mar-10 17:32N 34°37' E 135°22'0 0.0
2015-Mar-10 16:32N 34°37' E 135°22'0 0.0
2015-Mar-10 15:32N 34°37' E 135°22'0 0.0
2015-Mar-10 14:20N 34°37' E 135°22'0 0.0
2015-Mar-10 13:32N 34°37' E 135°22'0 0.0
2015-Mar-10 12:20N 34°37' E 135°22'0 0.0
2015-Mar-10 11:32N 34°37' E 135°22'0 0.0
2015-Mar-10 10:26N 34°37' E 135°22'0 0.0
2015-Mar-10 09:20N 34°37' E 135°22'0 0.0
2015-Mar-10 08:26N 34°37' E 135°22'0 0.0
2015-Mar-10 07:32N 34°37' E 135°22'  
Track history (hours):
 
Tides and Currents Weather Stations Pressure Air Temp Water Temp Dewpoint Dewpoint Depression Visibility Wind Speed Wind Dir Waves Ship Positions

Sky Ever

Last reported at 2015-Mar-20 06:33 UTC. Time now 2015-Mar-27 15:47 UTC.
Position N 34°36' E 134°54'.

Length 76 m; draft 3.6 m.

Type: Cargo ship. MMSI: 441751000.

Date/timePositionNaut miles runAvg speedWind from/ knotsBaromVisibWave heightAir tempDewpointWater temp
2015-Mar-20 06:33N 34°36' E 134°54'7 6.5
2015-Mar-20 05:32N 34°37' E 135°01'6 6.3
2015-Mar-20 04:33N 34°36' E 135°09'10 9.5
2015-Mar-20 03:33N 34°36' E 135°20'6 5.8
2015-Mar-20 02:33N 34°40' E 135°25'0 0.0
2015-Mar-20 01:33N 34°40' E 135°25'0 0.0
2015-Mar-20 00:32N 34°40' E 135°25'0 0.1
2015-Mar-19 23:33N 34°40' E 135°25'5 3.4
2015-Mar-19 22:12N 34°37' E 135°22'0 0.1
2015-Mar-19 21:24N 34°37' E 135°22'0 0.0
2015-Mar-19 20:30N 34°37' E 135°22'0 0.0
2015-Mar-19 19:18N 34°37' E 135°22'0 0.0
2015-Mar-19 18:30N 34°37' E 135°22'0 0.0
2015-Mar-19 17:30N 34°37' E 135°22'0 0.0
2015-Mar-19 16:30N 34°37' E 135°22'0 0.0
2015-Mar-19 15:30N 34°37' E 135°22'0 0.0
2015-Mar-19 14:30N 34°37' E 135°22'0 0.0
2015-Mar-19 13:24N 34°37' E 135°22'0 0.1
2015-Mar-19 12:30N 34°37' E 135°22'0 0.0
2015-Mar-19 11:30N 34°37' E 135°22'0 0.1
2015-Mar-19 10:30N 34°37' E 135°22'0 0.0
2015-Mar-19 09:24N 34°37' E 135°22'0 0.0
2015-Mar-19 08:30N 34°37' E 135°22'0 0.0
2015-Mar-19 07:30N 34°37' E 135°22'0 0.0
2015-Mar-19 06:24N 34°37' E 135°22'0 0.1
2015-Mar-19 05:30N 34°37' E 135°22'0 0.0
2015-Mar-19 04:30N 34°37' E 135°22'0 0.0
2015-Mar-19 03:30N 34°37' E 135°22'0 0.0
2015-Mar-19 02:24N 34°37' E 135°22'0 0.0
2015-Mar-19 01:30N 34°37' E 135°22'0 0.0
2015-Mar-19 00:24N 34°37' E 135°22'0 0.1
2015-Mar-18 23:24N 34°37' E 135°22'0 0.1
2015-Mar-18 22:29N 34°37' E 135°22'0 0.0
2015-Mar-18 18:29N 34°37' E 135°22'0 0.1
2015-Mar-18 17:29N 34°37' E 135°22'0 0.0
2015-Mar-18 16:23N 34°37' E 135°22'0 0.0
2015-Mar-18 15:29N 34°37' E 135°22'0 0.0
2015-Mar-18 14:29N 34°37' E 135°22'0 0.0
2015-Mar-18 13:23N 34°37' E 135°22'0 0.0
2015-Mar-18 12:29N 34°37' E 135°22'0 0.0
2015-Mar-18 11:29N 34°37' E 135°22'0 0.0
2015-Mar-18 10:23N 34°37' E 135°22'0 0.1
2015-Mar-18 09:29N 34°37' E 135°22'6 5.6
2015-Mar-18 08:29N 34°31' E 135°23'0 0.0
2015-Mar-18 06:18N 34°31' E 135°23'0 0.0
2015-Mar-18 05:24N 34°31' E 135°23'0 0.0
2015-Mar-18 02:31N 34°31' E 135°23'2 1.9
2015-Mar-18 01:26N 34°33' E 135°21'0 0.0
2015-Mar-18 00:32N 34°33' E 135°21'0 0.0
2015-Mar-17 23:08N 34°33' E 135°21'0 0.0
2015-Mar-17 22:32N 34°33' E 135°21'0 0.0
2015-Mar-17 21:26N 34°33' E 135°21'0 0.0
2015-Mar-17 20:32N 34°33' E 135°21'0 0.0
2015-Mar-17 18:26N 34°33' E 135°21'0 0.0
2015-Mar-17 17:32N 34°33' E 135°21'0 0.0
2015-Mar-17 16:32N 34°33' E 135°21'0 0.0
2015-Mar-17 15:32N 34°33' E 135°21'0 0.0
2015-Mar-17 14:31N 34°33' E 135°21'0 0.0
2015-Mar-17 12:31N 34°33' E 135°21'0 0.0
2015-Mar-17 11:13N 34°33' E 135°21'0 0.0
2015-Mar-17 10:25N 34°33' E 135°21'0 0.0
2015-Mar-17 09:19N 34°33' E 135°21'0 0.0
2015-Mar-17 07:25N 34°33' E 135°21'0 0.0
2015-Mar-17 06:25N 34°33' E 135°21'0 0.0
2015-Mar-17 04:31N 34°33' E 135°21'6 5.7
2015-Mar-17 03:33N 34°38' E 135°19'8 8.3
2015-Mar-17 02:33N 34°35' E 135°10'10 9.7
2015-Mar-17 01:33N 34°36' E 134°58'  
2015-Mar-12 11:30N 34°35' E 134°53'7 7.4
2015-Mar-12 10:32N 34°37' E 135°02'7 6.9
2015-Mar-12 09:32N 34°36' E 135°10'8 8.4
2015-Mar-12 08:33N 34°34' E 135°20'4 3.9
2015-Mar-12 07:29N 34°31' E 135°24'0 0.0
2015-Mar-12 06:29N 34°31' E 135°24'0 0.0
2015-Mar-12 05:29N 34°31' E 135°24'0 0.0
2015-Mar-12 04:29N 34°31' E 135°24'0 0.0
2015-Mar-12 03:29N 34°31' E 135°24'0 0.0
2015-Mar-12 02:29N 34°31' E 135°24'0 0.0
2015-Mar-12 01:29N 34°31' E 135°24'0 0.0
2015-Mar-12 00:28N 34°31' E 135°24'0 0.0
2015-Mar-11 23:28N 34°31' E 135°24'0 0.0
2015-Mar-11 22:33N 34°31' E 135°24'2 2.0
2015-Mar-11 21:28N 34°32' E 135°22'0 0.0
2015-Mar-11 20:22N 34°32' E 135°22'0 0.0
2015-Mar-11 19:22N 34°32' E 135°22'0 0.0
2015-Mar-11 18:28N 34°32' E 135°22'0 0.0
2015-Mar-11 17:04N 34°32' E 135°22'0 0.0
2015-Mar-11 16:04N 34°32' E 135°22'0 0.0
2015-Mar-11 14:21N 34°32' E 135°22'0 0.1
2015-Mar-11 13:33N 34°32' E 135°22'0 0.0
2015-Mar-11 12:09N 34°32' E 135°22'0 0.0
2015-Mar-11 11:27N 34°32' E 135°22'0 0.0
2015-Mar-11 10:09N 34°32' E 135°22'0 0.0
2015-Mar-11 09:27N 34°32' E 135°22'0 0.0
2015-Mar-11 07:33N 34°32' E 135°22'6 6.2
2015-Mar-11 06:33N 34°38' E 135°23'3 2.9
2015-Mar-11 05:33N 34°40' E 135°25'0 0.0
2015-Mar-11 04:15N 34°40' E 135°25'0 0.0
2015-Mar-11 03:33N 34°40' E 135°25'0 0.0
2015-Mar-11 02:27N 34°40' E 135°25'0 0.1
2015-Mar-11 01:33N 34°40' E 135°25'0 0.0
2015-Mar-11 00:33N 34°40' E 135°25'1 0.9
2015-Mar-10 23:33N 34°40' E 135°25'4 3.3
2015-Mar-10 22:26N 34°37' E 135°22'0 0.0
2015-Mar-10 21:32N 34°37' E 135°22'0 0.1
2015-Mar-10 20:32N 34°37' E 135°22'0 0.1
2015-Mar-10 19:32N 34°37' E 135°22'0 0.0
2015-Mar-10 18:14N 34°37' E 135°22'0 0.0
2015-Mar-10 17:32N 34°37' E 135°22'0 0.0
2015-Mar-10 16:32N 34°37' E 135°22'0 0.0
2015-Mar-10 15:32N 34°37' E 135°22'0 0.0
2015-Mar-10 14:20N 34°37' E 135°22'0 0.0
2015-Mar-10 13:32N 34°37' E 135°22'0 0.0
2015-Mar-10 12:20N 34°37' E 135°22'0 0.0
2015-Mar-10 11:32N 34°37' E 135°22'0 0.0
2015-Mar-10 10:26N 34°37' E 135°22'0 0.0
2015-Mar-10 09:20N 34°37' E 135°22'0 0.0
2015-Mar-10 08:26N 34°37' E 135°22'0 0.0
2015-Mar-10 07:32N 34°37' E 135°22'  

Dump ship's entire track history